Algeciras Jet — 5BLY2 — position and weather

sailwx.info

Track history (hours):
 
Tides and Currents Weather Stations Pressure Air Temp Water Temp Dewpoint Dewpoint Depression Visibility Wind Speed Wind Dir Waves Ship Positions

Algeciras Jet

Last reported at 2017-Nov-24 02:00 UTC. Time now 2017-Nov-24 02:10 UTC.
Position N 36°01' W 005°36'.

Length 60 m; draft 2.2 m.

Type: High speed craft. MMSI: 209936000.

Date/timePositionNaut miles runAvg speedWind from/ knotsBaromVisibWave heightAir tempDewpointWater temp
2017-Nov-24 02:00N 36°01' W 005°36'0 0.0
2017-Nov-24 01:30N 36°01' W 005°36'0 0.0
2017-Nov-24 01:00N 36°01' W 005°36'0 0.0
2017-Nov-24 00:30N 36°01' W 005°36'0 0.0
2017-Nov-24 00:00N 36°01' W 005°36'0 0.0
2017-Nov-23 23:30N 36°01' W 005°36'1 0.8
2017-Nov-23 22:50N 36°00' W 005°36'4 1.4
2017-Nov-23 20:23N 35°58' W 005°40'410.4
2017-Nov-23 20:00N 36°01' W 005°36'0 0.0
2017-Nov-23 19:15N 36°01' W 005°36'2 0.7
2017-Nov-23 16:19N 35°59' W 005°38'2 6.0
2017-Nov-23 15:58N 36°01' W 005°36'13 3.9
2017-Nov-23 12:40N 35°51' W 005°47'924.7
2017-Nov-23 12:17N 35°59' W 005°40'4 0.5
2017-Nov-23 05:26N 36°01' W 005°36'0 0.0
2017-Nov-23 04:56N 36°01' W 005°36'0 0.0
2017-Nov-23 04:29N 36°01' W 005°36'0 0.0
2017-Nov-23 03:59N 36°01' W 005°36'0 0.0
2017-Nov-23 03:26N 36°01' W 005°36'0 0.0
2017-Nov-23 02:56N 36°01' W 005°36'0 0.0
2017-Nov-23 02:26N 36°01' W 005°36'0 0.0
2017-Nov-23 01:59N 36°01' W 005°36'0 0.0
2017-Nov-23 01:26N 36°01' W 005°36'0 0.0
2017-Nov-23 00:59N 36°01' W 005°36'0 0.0
2017-Nov-23 00:26N 36°01' W 005°36'0 0.0
2017-Nov-22 23:59N 36°01' W 005°36'0 0.0
2017-Nov-22 23:29N 36°01' W 005°36'0 0.0
2017-Nov-22 22:59N 36°01' W 005°36'3 1.2
2017-Nov-22 20:19N 35°58' W 005°39'310.6
2017-Nov-22 20:01N 36°01' W 005°36'0 0.0
2017-Nov-22 19:30N 36°01' W 005°36'  
2017-Nov-20 00:25N 36°01' W 005°36'0 0.0
2017-Nov-19 23:55N 36°01' W 005°36'0 0.0
2017-Nov-19 23:30N 36°01' W 005°36'0 0.3
2017-Nov-19 23:00N 36°00' W 005°36'0 0.1
2017-Nov-19 19:57N 36°01' W 005°36'0 0.1
2017-Nov-19 19:30N 36°01' W 005°36'4 1.4
2017-Nov-19 16:52N 35°58' W 005°40'410.6
2017-Nov-19 16:31N 36°01' W 005°36'0 0.0
2017-Nov-19 16:00N 36°01' W 005°36'0 0.4
2017-Nov-19 15:30N 36°00' W 005°36'4 1.3
2017-Nov-19 12:37N 35°58' W 005°40'0 0.1
2017-Nov-19 08:28N 35°58' W 005°40'4 7.8
2017-Nov-19 08:00N 36°01' W 005°36'0 0.0
2017-Nov-19 07:30N 36°01' W 005°36'0 0.0
2017-Nov-19 06:38N 36°01' W 005°36'0 0.0
2017-Nov-19 06:26N 36°01' W 005°36'0 0.0
2017-Nov-19 01:35N 36°01' W 005°36'0 0.0
2017-Nov-19 01:26N 36°01' W 005°36'0 0.0
2017-Nov-19 00:56N 36°01' W 005°36'0 0.0
2017-Nov-19 00:29N 36°01' W 005°36'0 0.0
2017-Nov-18 23:47N 36°01' W 005°36'0 0.0
2017-Nov-18 23:26N 36°01' W 005°36'0 0.7
2017-Nov-18 23:00N 36°00' W 005°36'4 1.5
2017-Nov-18 20:34N 35°58' W 005°40'122.4
2017-Nov-18 20:30N 35°59' W 005°38'3 5.0
2017-Nov-18 20:00N 36°01' W 005°36'0 0.0
2017-Nov-18 15:26N 36°01' W 005°36'0 0.0
2017-Nov-18 06:16N 36°01' W 005°36'0 0.0
2017-Nov-18 05:58N 36°01' W 005°36'0 0.0
2017-Nov-18 05:28N 36°01' W 005°36'0 0.0
2017-Nov-18 04:55N 36°01' W 005°36'0 0.0
2017-Nov-18 04:28N 36°01' W 005°36'0 0.0
2017-Nov-18 03:58N 36°01' W 005°36'0 0.0
2017-Nov-18 03:25N 36°01' W 005°36'0 0.0
2017-Nov-18 02:55N 36°01' W 005°36'0 0.0
2017-Nov-18 02:25N 36°01' W 005°36'0 0.0
2017-Nov-18 01:58N 36°01' W 005°36'0 0.0
2017-Nov-18 01:28N 36°01' W 005°36'0 0.0
2017-Nov-18 00:55N 36°01' W 005°36'0 0.0
2017-Nov-18 00:25N 36°01' W 005°36'0 0.0
2017-Nov-17 23:58N 36°01' W 005°36'0 0.0
2017-Nov-17 23:28N 36°01' W 005°36'0 0.0
2017-Nov-17 23:01N 36°01' W 005°36'3 1.2
2017-Nov-17 20:21N 35°58' W 005°39'3 8.8
2017-Nov-17 19:59N 36°01' W 005°36'1 1.4
2017-Nov-17 19:12N 35°60' W 005°36'1 0.1
2017-Nov-17 06:17N 36°01' W 005°36'0 0.0
2017-Nov-17 05:59N 36°01' W 005°36'0 0.0
2017-Nov-17 05:29N 36°01' W 005°36'0 0.0
2017-Nov-17 04:59N 36°01' W 005°36'0 0.0
2017-Nov-17 04:29N 36°01' W 005°36'0 0.0
2017-Nov-17 03:59N 36°01' W 005°36'0 0.0
2017-Nov-17 03:29N 36°01' W 005°36'0 0.0
2017-Nov-17 02:53N 36°01' W 005°36'0 0.0
2017-Nov-17 02:29N 36°01' W 005°36'0 0.0
2017-Nov-17 01:56N 36°01' W 005°36'0 0.0
2017-Nov-17 01:29N 36°01' W 005°36'0 0.0
2017-Nov-17 00:59N 36°01' W 005°36'0 0.0
2017-Nov-17 00:29N 36°01' W 005°36'0 0.0
2017-Nov-16 23:59N 36°01' W 005°36'0 0.0
2017-Nov-16 23:29N 36°01' W 005°36'0 0.0
2017-Nov-16 23:00N 36°01' W 005°36'0 0.0
2017-Nov-16 07:20N 36°01' W 005°36'0 0.0
2017-Nov-16 06:56N 36°01' W 005°36'0 0.0
2017-Nov-16 06:08N 36°01' W 005°36'0 0.0
2017-Nov-16 05:50N 36°01' W 005°36'0 0.0
2017-Nov-16 05:26N 36°01' W 005°36'0 0.0
2017-Nov-16 04:44N 36°01' W 005°36'0 0.0
2017-Nov-16 04:20N 36°01' W 005°36'0 0.0
2017-Nov-16 03:56N 36°01' W 005°36'0 0.0
2017-Nov-16 01:50N 36°01' W 005°36'0 0.0
2017-Nov-16 01:26N 36°01' W 005°36'0 0.0
2017-Nov-16 00:56N 36°01' W 005°36'0 0.0
2017-Nov-16 00:26N 36°01' W 005°36'0 0.0
2017-Nov-15 23:50N 36°01' W 005°36'0 0.0
2017-Nov-15 23:26N 36°01' W 005°36'0 0.0
2017-Nov-15 23:00N 36°01' W 005°36'0 0.0
2017-Nov-15 19:55N 36°01' W 005°36'0 0.0
2017-Nov-15 19:30N 36°01' W 005°36'0 0.0
2017-Nov-15 06:56N 36°01' W 005°36'0 0.0
2017-Nov-15 06:29N 36°01' W 005°36'0 0.0
2017-Nov-15 05:56N 36°01' W 005°36'0 0.0
2017-Nov-15 05:29N 36°01' W 005°36'0 0.0
2017-Nov-15 04:59N 36°01' W 005°36'0 0.0
2017-Nov-15 04:26N 36°01' W 005°36'0 0.0
2017-Nov-15 03:56N 36°01' W 005°36'0 0.0
2017-Nov-15 03:23N 36°01' W 005°36'0 0.0
2017-Nov-15 02:59N 36°01' W 005°36'0 0.0
2017-Nov-15 02:26N 36°01' W 005°36'0 0.0
2017-Nov-15 00:26N 36°01' W 005°36'0 0.0
2017-Nov-14 23:56N 36°01' W 005°36'0 0.0
2017-Nov-14 23:26N 36°01' W 005°36'0 0.0
2017-Nov-14 23:00N 36°01' W 005°36'7 2.7
2017-Nov-14 20:26N 35°57' W 005°43'7 0.4
2017-Nov-14 04:38N 36°01' W 005°36'0 0.0
2017-Nov-14 04:25N 36°01' W 005°36'0 0.0
2017-Nov-14 03:57N 36°01' W 005°36'0 0.0
2017-Nov-14 03:25N 36°01' W 005°36'0 0.0
2017-Nov-14 02:59N 36°01' W 005°36'0 0.0
2017-Nov-14 02:20N 36°01' W 005°36'  
Track history (hours):
 
Tides and Currents Weather Stations Pressure Air Temp Water Temp Dewpoint Dewpoint Depression Visibility Wind Speed Wind Dir Waves Ship Positions

Algeciras Jet

Last reported at 2017-Nov-24 02:00 UTC. Time now 2017-Nov-24 02:10 UTC.
Position N 36°01' W 005°36'.

Length 60 m; draft 2.2 m.

Type: High speed craft. MMSI: 209936000.

Date/timePositionNaut miles runAvg speedWind from/ knotsBaromVisibWave heightAir tempDewpointWater temp
2017-Nov-24 02:00N 36°01' W 005°36'0 0.0
2017-Nov-24 01:30N 36°01' W 005°36'0 0.0
2017-Nov-24 01:00N 36°01' W 005°36'0 0.0
2017-Nov-24 00:30N 36°01' W 005°36'0 0.0
2017-Nov-24 00:00N 36°01' W 005°36'0 0.0
2017-Nov-23 23:30N 36°01' W 005°36'1 0.8
2017-Nov-23 22:50N 36°00' W 005°36'4 1.4
2017-Nov-23 20:23N 35°58' W 005°40'410.4
2017-Nov-23 20:00N 36°01' W 005°36'0 0.0
2017-Nov-23 19:15N 36°01' W 005°36'2 0.7
2017-Nov-23 16:19N 35°59' W 005°38'2 6.0
2017-Nov-23 15:58N 36°01' W 005°36'13 3.9
2017-Nov-23 12:40N 35°51' W 005°47'924.7
2017-Nov-23 12:17N 35°59' W 005°40'4 0.5
2017-Nov-23 05:26N 36°01' W 005°36'0 0.0
2017-Nov-23 04:56N 36°01' W 005°36'0 0.0
2017-Nov-23 04:29N 36°01' W 005°36'0 0.0
2017-Nov-23 03:59N 36°01' W 005°36'0 0.0
2017-Nov-23 03:26N 36°01' W 005°36'0 0.0
2017-Nov-23 02:56N 36°01' W 005°36'0 0.0
2017-Nov-23 02:26N 36°01' W 005°36'0 0.0
2017-Nov-23 01:59N 36°01' W 005°36'0 0.0
2017-Nov-23 01:26N 36°01' W 005°36'0 0.0
2017-Nov-23 00:59N 36°01' W 005°36'0 0.0
2017-Nov-23 00:26N 36°01' W 005°36'0 0.0
2017-Nov-22 23:59N 36°01' W 005°36'0 0.0
2017-Nov-22 23:29N 36°01' W 005°36'0 0.0
2017-Nov-22 22:59N 36°01' W 005°36'3 1.2
2017-Nov-22 20:19N 35°58' W 005°39'310.6
2017-Nov-22 20:01N 36°01' W 005°36'0 0.0
2017-Nov-22 19:30N 36°01' W 005°36'  
2017-Nov-20 00:25N 36°01' W 005°36'0 0.0
2017-Nov-19 23:55N 36°01' W 005°36'0 0.0
2017-Nov-19 23:30N 36°01' W 005°36'0 0.3
2017-Nov-19 23:00N 36°00' W 005°36'0 0.1
2017-Nov-19 19:57N 36°01' W 005°36'0 0.1
2017-Nov-19 19:30N 36°01' W 005°36'4 1.4
2017-Nov-19 16:52N 35°58' W 005°40'410.6
2017-Nov-19 16:31N 36°01' W 005°36'0 0.0
2017-Nov-19 16:00N 36°01' W 005°36'0 0.4
2017-Nov-19 15:30N 36°00' W 005°36'4 1.3
2017-Nov-19 12:37N 35°58' W 005°40'0 0.1
2017-Nov-19 08:28N 35°58' W 005°40'4 7.8
2017-Nov-19 08:00N 36°01' W 005°36'0 0.0
2017-Nov-19 07:30N 36°01' W 005°36'0 0.0
2017-Nov-19 06:38N 36°01' W 005°36'0 0.0
2017-Nov-19 06:26N 36°01' W 005°36'0 0.0
2017-Nov-19 01:35N 36°01' W 005°36'0 0.0
2017-Nov-19 01:26N 36°01' W 005°36'0 0.0
2017-Nov-19 00:56N 36°01' W 005°36'0 0.0
2017-Nov-19 00:29N 36°01' W 005°36'0 0.0
2017-Nov-18 23:47N 36°01' W 005°36'0 0.0
2017-Nov-18 23:26N 36°01' W 005°36'0 0.7
2017-Nov-18 23:00N 36°00' W 005°36'4 1.5
2017-Nov-18 20:34N 35°58' W 005°40'122.4
2017-Nov-18 20:30N 35°59' W 005°38'3 5.0
2017-Nov-18 20:00N 36°01' W 005°36'0 0.0
2017-Nov-18 15:26N 36°01' W 005°36'0 0.0
2017-Nov-18 06:16N 36°01' W 005°36'0 0.0
2017-Nov-18 05:58N 36°01' W 005°36'0 0.0
2017-Nov-18 05:28N 36°01' W 005°36'0 0.0
2017-Nov-18 04:55N 36°01' W 005°36'0 0.0
2017-Nov-18 04:28N 36°01' W 005°36'0 0.0
2017-Nov-18 03:58N 36°01' W 005°36'0 0.0
2017-Nov-18 03:25N 36°01' W 005°36'0 0.0
2017-Nov-18 02:55N 36°01' W 005°36'0 0.0
2017-Nov-18 02:25N 36°01' W 005°36'0 0.0
2017-Nov-18 01:58N 36°01' W 005°36'0 0.0
2017-Nov-18 01:28N 36°01' W 005°36'0 0.0
2017-Nov-18 00:55N 36°01' W 005°36'0 0.0
2017-Nov-18 00:25N 36°01' W 005°36'0 0.0
2017-Nov-17 23:58N 36°01' W 005°36'0 0.0
2017-Nov-17 23:28N 36°01' W 005°36'0 0.0
2017-Nov-17 23:01N 36°01' W 005°36'3 1.2
2017-Nov-17 20:21N 35°58' W 005°39'3 8.8
2017-Nov-17 19:59N 36°01' W 005°36'1 1.4
2017-Nov-17 19:12N 35°60' W 005°36'1 0.1
2017-Nov-17 06:17N 36°01' W 005°36'0 0.0
2017-Nov-17 05:59N 36°01' W 005°36'0 0.0
2017-Nov-17 05:29N 36°01' W 005°36'0 0.0
2017-Nov-17 04:59N 36°01' W 005°36'0 0.0
2017-Nov-17 04:29N 36°01' W 005°36'0 0.0
2017-Nov-17 03:59N 36°01' W 005°36'0 0.0
2017-Nov-17 03:29N 36°01' W 005°36'0 0.0
2017-Nov-17 02:53N 36°01' W 005°36'0 0.0
2017-Nov-17 02:29N 36°01' W 005°36'0 0.0
2017-Nov-17 01:56N 36°01' W 005°36'0 0.0
2017-Nov-17 01:29N 36°01' W 005°36'0 0.0
2017-Nov-17 00:59N 36°01' W 005°36'0 0.0
2017-Nov-17 00:29N 36°01' W 005°36'0 0.0
2017-Nov-16 23:59N 36°01' W 005°36'0 0.0
2017-Nov-16 23:29N 36°01' W 005°36'0 0.0
2017-Nov-16 23:00N 36°01' W 005°36'0 0.0
2017-Nov-16 07:20N 36°01' W 005°36'0 0.0
2017-Nov-16 06:56N 36°01' W 005°36'0 0.0
2017-Nov-16 06:08N 36°01' W 005°36'0 0.0
2017-Nov-16 05:50N 36°01' W 005°36'0 0.0
2017-Nov-16 05:26N 36°01' W 005°36'0 0.0
2017-Nov-16 04:44N 36°01' W 005°36'0 0.0
2017-Nov-16 04:20N 36°01' W 005°36'0 0.0
2017-Nov-16 03:56N 36°01' W 005°36'0 0.0
2017-Nov-16 01:50N 36°01' W 005°36'0 0.0
2017-Nov-16 01:26N 36°01' W 005°36'0 0.0
2017-Nov-16 00:56N 36°01' W 005°36'0 0.0
2017-Nov-16 00:26N 36°01' W 005°36'0 0.0
2017-Nov-15 23:50N 36°01' W 005°36'0 0.0
2017-Nov-15 23:26N 36°01' W 005°36'0 0.0
2017-Nov-15 23:00N 36°01' W 005°36'0 0.0
2017-Nov-15 19:55N 36°01' W 005°36'0 0.0
2017-Nov-15 19:30N 36°01' W 005°36'0 0.0
2017-Nov-15 06:56N 36°01' W 005°36'0 0.0
2017-Nov-15 06:29N 36°01' W 005°36'0 0.0
2017-Nov-15 05:56N 36°01' W 005°36'0 0.0
2017-Nov-15 05:29N 36°01' W 005°36'0 0.0
2017-Nov-15 04:59N 36°01' W 005°36'0 0.0
2017-Nov-15 04:26N 36°01' W 005°36'0 0.0
2017-Nov-15 03:56N 36°01' W 005°36'0 0.0
2017-Nov-15 03:23N 36°01' W 005°36'0 0.0
2017-Nov-15 02:59N 36°01' W 005°36'0 0.0
2017-Nov-15 02:26N 36°01' W 005°36'0 0.0
2017-Nov-15 00:26N 36°01' W 005°36'0 0.0
2017-Nov-14 23:56N 36°01' W 005°36'0 0.0
2017-Nov-14 23:26N 36°01' W 005°36'0 0.0
2017-Nov-14 23:00N 36°01' W 005°36'7 2.7
2017-Nov-14 20:26N 35°57' W 005°43'7 0.4
2017-Nov-14 04:38N 36°01' W 005°36'0 0.0
2017-Nov-14 04:25N 36°01' W 005°36'0 0.0
2017-Nov-14 03:57N 36°01' W 005°36'0 0.0
2017-Nov-14 03:25N 36°01' W 005°36'0 0.0
2017-Nov-14 02:59N 36°01' W 005°36'0 0.0
2017-Nov-14 02:20N 36°01' W 005°36'  

Dump ship's entire track history